Kobrin, Belarus
Current Conditions -  °F | °C
As of 8:30 AM on Monday 26 Jan 2015 (Local Time) from EPLB Reporting Station
Haze Haze  
Wind Chill: 23°   Ceiling: 600
Heat Index: 30°   Visibility: 3mi
Dew Point: 30°   Wind: 7mph
Humidity: 100%   Direction: 310°NW
Pressure: 30.18"   Gusts: NA
Location:  52.21°N, 24.36°E
Report Text: EPLB 260630Z 31006KT 5000 BR OVC006 M01/M01 Q1022
Loading
Personal Weather Stations






























Interactive Weather Map New forecast layout! Learn more

10-Day Weather Forecast

Advertisements
Track Severe Weather on mobile